createdAt,value
2019-05-07T00:00:37.299Z,50.60
2019-05-07T00:03:06.919Z,49.20
2019-05-07T00:05:36.590Z,49.90
2019-05-07T00:08:06.215Z,49.90
2019-05-07T00:10:35.755Z,50.10
2019-05-07T00:13:05.486Z,51.00
2019-05-07T00:15:35.032Z,50.40
2019-05-07T00:18:04.819Z,51.00
2019-05-07T00:20:34.613Z,51.80
2019-05-07T00:23:04.147Z,53.20
2019-05-07T00:25:33.705Z,55.00
2019-05-07T00:28:03.371Z,55.80
2019-05-07T00:30:33.362Z,57.80
2019-05-07T00:33:03.042Z,61.30
2019-05-07T00:35:36.905Z,61.80
2019-05-07T00:38:08.095Z,64.50
2019-05-07T00:40:39.266Z,66.40
2019-05-07T00:43:19.207Z,67.90
2019-05-07T00:45:59.109Z,69.10
2019-05-07T00:48:29.628Z,70.50
2019-05-07T00:51:16.984Z,71.80
2019-05-07T00:53:46.679Z,71.80
2019-05-07T00:56:16.355Z,71.70
2019-05-07T00:58:45.976Z,72.10
2019-05-07T01:01:15.517Z,71.60
2019-05-07T01:03:45.137Z,71.90
2019-05-07T01:06:14.668Z,71.90
2019-05-07T01:08:44.287Z,72.00
2019-05-07T01:11:13.883Z,71.10
2019-05-07T01:13:43.874Z,69.40
2019-05-07T01:16:13.811Z,69.10
2019-05-07T01:18:43.363Z,69.30
2019-05-07T01:21:13.296Z,69.10
2019-05-07T01:23:42.965Z,68.20
2019-05-07T01:26:12.622Z,67.40
2019-05-07T01:29:02.442Z,67.80
2019-05-07T01:31:37.625Z,66.10
2019-05-07T01:34:08.872Z,61.70
2019-05-07T01:36:38.421Z,59.60
2019-05-07T01:39:07.983Z,56.70
2019-05-07T01:41:37.529Z,55.60
2019-05-07T01:44:07.085Z,54.90
2019-05-07T01:46:36.692Z,53.60
2019-05-07T01:49:06.232Z,54.30
2019-05-07T01:51:35.800Z,53.00
2019-05-07T01:54:05.340Z,52.60
2019-05-07T01:56:34.893Z,52.30
2019-05-07T01:59:04.571Z,51.30
2019-05-07T02:01:35.925Z,55.30
2019-05-07T02:04:18.880Z,62.20
2019-05-07T02:07:06.015Z,62.80
2019-05-07T02:09:37.199Z,62.90
2019-05-07T02:12:08.516Z,64.80
2019-05-07T02:14:38.076Z,65.90
2019-05-07T02:17:07.688Z,66.00
2019-05-07T02:19:37.233Z,66.80
2019-05-07T02:22:06.801Z,66.40
2019-05-07T02:24:36.327Z,65.30
2019-05-07T02:27:05.944Z,65.40
2019-05-07T02:29:38.121Z,64.80
2019-05-07T02:32:06.650Z,64.30
2019-05-07T02:34:36.209Z,64.10
2019-05-07T02:37:07.463Z,64.40
2019-05-07T02:39:43.980Z,65.90
2019-05-07T02:42:13.077Z,66.80
2019-05-07T02:44:59.132Z,66.00
2019-05-07T02:47:33.081Z,65.20
2019-05-07T02:50:03.493Z,66.60
2019-05-07T02:52:53.690Z,66.60
2019-05-07T02:55:36.852Z,66.20
2019-05-07T02:58:06.543Z,66.50
2019-05-07T03:00:36.318Z,66.10
2019-05-07T03:03:05.937Z,66.80
2019-05-07T03:05:35.480Z,64.70
2019-05-07T03:08:05.279Z,65.90
2019-05-07T03:10:34.891Z,65.60
2019-05-07T03:13:04.674Z,65.80
2019-05-07T03:15:34.451Z,66.30
2019-05-07T03:18:04.173Z,66.70
2019-05-07T03:20:43.028Z,66.00
2019-05-07T03:23:13.765Z,66.10
2019-05-07T03:26:03.956Z,66.20
2019-05-07T03:28:33.738Z,67.40
2019-05-07T03:31:06.141Z,67.00
2019-05-07T03:33:46.418Z,66.20
2019-05-07T03:36:16.775Z,66.60
2019-05-07T03:38:44.083Z,66.40
2019-05-07T03:41:13.815Z,66.00
2019-05-07T03:43:43.721Z,65.30
2019-05-07T03:46:17.590Z,63.70
2019-05-07T03:48:47.465Z,63.60
2019-05-07T03:51:17.014Z,64.00
2019-05-07T03:53:46.573Z,65.40
2019-05-07T03:56:16.108Z,65.70
2019-05-07T03:58:45.722Z,66.00
2019-05-07T04:01:15.275Z,65.20
2019-05-07T04:03:45.065Z,66.30
2019-05-07T04:06:14.725Z,67.00
2019-05-07T04:08:44.318Z,65.80
2019-05-07T04:11:14.250Z,65.60
2019-05-07T04:13:44.407Z,66.90
2019-05-07T04:16:14.137Z,66.60
2019-05-07T04:18:44.247Z,65.50
2019-05-07T04:21:14.271Z,65.50
2019-05-07T04:23:44.248Z,64.60
2019-05-07T04:26:15.441Z,63.60
2019-05-07T04:29:04.846Z,64.70
2019-05-07T04:31:34.665Z,65.00
2019-05-07T04:34:06.035Z,65.60
2019-05-07T04:36:36.532Z,64.90
2019-05-07T04:39:08.194Z,65.40
2019-05-07T04:41:37.796Z,63.90
2019-05-07T04:44:07.343Z,64.80
2019-05-07T04:46:36.900Z,65.80
2019-05-07T04:49:06.573Z,65.30
2019-05-07T04:51:37.904Z,65.60
2019-05-07T04:54:07.434Z,64.70
2019-05-07T04:56:38.023Z,63.40
2019-05-07T04:59:07.574Z,63.70
2019-05-07T05:01:38.758Z,61.60
2019-05-07T05:04:23.358Z,61.10
2019-05-07T05:06:42.407Z,63.40
2019-05-07T05:09:12.547Z,64.50
2019-05-07T05:11:43.877Z,62.20
2019-05-07T05:14:13.857Z,60.70
2019-05-07T05:16:43.467Z,60.10
2019-05-07T05:19:13.018Z,60.30
2019-05-07T05:21:47.759Z,59.70
2019-05-07T05:24:22.235Z,60.00
2019-05-07T05:26:52.543Z,59.80
2019-05-07T05:29:22.761Z,57.70
2019-05-07T05:31:52.923Z,58.00
2019-05-07T05:34:22.571Z,57.20
2019-05-07T05:36:53.233Z,56.80
2019-05-07T05:39:22.876Z,57.20
2019-05-07T05:41:54.052Z,57.00
2019-05-07T05:44:25.253Z,56.70
2019-05-07T05:46:54.787Z,56.60
2019-05-07T05:49:24.358Z,56.60
2019-05-07T05:51:58.118Z,56.10
2019-05-07T05:54:31.717Z,56.60
2019-05-07T05:57:20.148Z,57.20
2019-05-07T06:00:06.080Z,57.60
2019-05-07T06:02:40.084Z,58.30
2019-05-07T06:05:27.559Z,58.70
2019-05-07T06:07:58.736Z,58.50
2019-05-07T06:10:44.928Z,59.70
2019-05-07T06:13:23.071Z,60.40
2019-05-07T06:15:57.888Z,61.40
2019-05-07T06:18:34.815Z,61.50
2019-05-07T06:21:23.980Z,62.60
2019-05-07T06:23:54.801Z,62.60
2019-05-07T06:26:24.399Z,63.60
2019-05-07T06:28:53.947Z,64.60
2019-05-07T06:31:23.542Z,65.30
2019-05-07T06:33:53.102Z,65.10
2019-05-07T06:36:22.642Z,66.00
2019-05-07T06:38:53.840Z,65.90
2019-05-07T06:41:25.005Z,66.10
2019-05-07T06:43:56.292Z,66.70
2019-05-07T06:46:25.967Z,67.50
2019-05-07T06:48:55.502Z,65.80
2019-05-07T06:51:25.190Z,66.10
2019-05-07T06:53:54.723Z,66.70
2019-05-07T06:56:24.289Z,66.40
2019-05-07T06:59:07.134Z,65.60
2019-05-07T07:01:38.311Z,66.20
2019-05-07T07:04:22.478Z,66.30
2019-05-07T07:06:53.036Z,66.80
2019-05-07T07:09:24.211Z,65.70
2019-05-07T07:11:58.301Z,64.50
2019-05-07T07:14:27.912Z,64.20
2019-05-07T07:16:57.540Z,63.70
2019-05-07T07:19:27.155Z,64.00
2019-05-07T07:21:57.735Z,63.60
2019-05-07T07:24:27.298Z,62.30
2019-05-07T07:26:56.847Z,62.40
2019-05-07T07:29:28.105Z,61.70
2019-05-07T07:31:59.521Z,61.60
2019-05-07T07:34:33.063Z,60.80
2019-05-07T07:37:18.385Z,57.40
2019-05-07T07:39:47.944Z,58.00
2019-05-07T07:42:17.568Z,58.00
2019-05-07T07:44:48.824Z,57.30
2019-05-07T07:47:22.290Z,56.40
2019-05-07T07:49:52.587Z,55.60
2019-05-07T07:52:23.021Z,55.70
2019-05-07T07:54:53.016Z,54.50
2019-05-07T07:57:43.283Z,55.60
2019-05-07T08:00:32.868Z,54.80
2019-05-07T08:03:04.172Z,54.00
2019-05-07T08:05:33.736Z,54.10
2019-05-07T08:08:03.417Z,53.20
2019-05-07T08:10:32.962Z,53.60
2019-05-07T08:13:02.563Z,54.30
2019-05-07T08:15:33.015Z,55.00
2019-05-07T08:18:02.988Z,54.40
2019-05-07T08:20:33.734Z,53.90
2019-05-07T08:23:03.337Z,54.30
2019-05-07T08:25:47.730Z,53.00
2019-05-07T08:28:18.311Z,53.50
2019-05-07T08:30:52.624Z,53.50
2019-05-07T08:33:23.863Z,53.60
2019-05-07T08:36:12.010Z,53.20
2019-05-07T08:38:54.828Z,52.40
2019-05-07T08:41:26.598Z,52.40
2019-05-07T08:44:14.705Z,52.00
2019-05-07T08:46:47.234Z,52.00
2019-05-07T08:49:31.787Z,52.20
2019-05-07T08:51:51.947Z,51.40
2019-05-07T08:54:22.678Z,51.40
2019-05-07T08:56:52.752Z,51.90
2019-05-07T08:59:22.532Z,50.50
2019-05-07T09:01:52.081Z,51.00
2019-05-07T09:04:22.030Z,50.70
2019-05-07T09:06:52.004Z,51.90
2019-05-07T09:09:22.241Z,52.50
2019-05-07T09:11:51.960Z,52.50
2019-05-07T09:14:24.466Z,51.20
2019-05-07T09:16:52.837Z,51.80
2019-05-07T09:19:22.457Z,51.40
2019-05-07T09:21:52.789Z,50.50
2019-05-07T09:24:22.600Z,49.50
2019-05-07T09:27:02.826Z,49.10
2019-05-07T09:29:35.109Z,49.40
2019-05-07T09:32:15.368Z,48.20
2019-05-07T09:34:46.532Z,46.70
2019-05-07T09:37:26.417Z,47.60
2019-05-07T09:39:56.071Z,48.00
2019-05-07T09:42:25.681Z,47.80
2019-05-07T09:44:55.215Z,48.40
2019-05-07T09:47:24.832Z,47.60
2019-05-07T09:50:03.866Z,47.50
2019-05-07T09:52:25.578Z,48.70
2019-05-07T09:54:55.134Z,47.70
2019-05-07T09:57:30.892Z,48.10
2019-05-07T09:59:55.959Z,49.60
2019-05-07T10:02:25.722Z,50.10
2019-05-07T10:04:55.316Z,48.40
2019-05-07T10:07:26.401Z,49.00
2019-05-07T10:09:56.085Z,50.00
2019-05-07T10:12:27.391Z,49.20
2019-05-07T10:14:56.994Z,48.80
2019-05-07T10:17:32.763Z,47.10
2019-05-07T10:20:07.220Z,45.90
2019-05-07T10:22:34.233Z,46.50
2019-05-07T10:25:04.928Z,48.10
2019-05-07T10:27:34.679Z,47.50
2019-05-07T10:30:04.976Z,46.80
2019-05-07T14:29:25.217Z,29.10
2019-05-07T14:31:56.740Z,29.10
2019-05-07T14:34:27.906Z,29.50
2019-05-07T14:37:08.086Z,30.60
2019-05-07T14:39:37.687Z,29.70
2019-05-07T14:42:12.912Z,29.40
2019-05-07T14:44:52.789Z,28.80
2019-05-07T14:47:22.570Z,30.00
2019-05-07T14:49:52.909Z,31.70
2019-05-07T14:52:32.101Z,32.10
2019-05-07T14:54:54.123Z,30.10
2019-05-07T14:57:23.819Z,30.00
2019-05-07T14:59:53.515Z,28.90
2019-05-07T15:02:23.728Z,29.60
2019-05-07T15:04:53.536Z,30.60
2019-05-07T15:07:23.226Z,31.10
2019-05-07T15:09:53.293Z,30.90
2019-05-07T15:12:23.533Z,32.00
2019-05-07T15:14:53.247Z,32.90
2019-05-07T15:17:28.206Z,32.60
2019-05-07T15:19:57.854Z,33.60
2019-05-07T15:22:47.135Z,33.20
2019-05-07T15:25:12.475Z,32.60
2019-05-07T15:27:42.658Z,32.50
2019-05-07T15:30:12.803Z,32.60
2019-05-07T15:32:42.858Z,33.10
2019-05-07T15:35:12.690Z,33.10
2019-05-07T15:37:42.804Z,33.80
2019-05-07T15:40:12.571Z,34.10
2019-05-07T15:42:42.283Z,34.90
2019-05-07T15:45:12.518Z,34.40
2019-05-07T15:47:44.153Z,34.80
2019-05-07T15:50:14.022Z,34.70
2019-05-07T15:52:58.162Z,35.30
2019-05-07T15:55:22.428Z,35.30
2019-05-07T15:57:52.263Z,35.30
2019-05-07T16:00:24.503Z,34.90
2019-05-07T16:02:58.471Z,34.70
2019-05-07T16:05:28.160Z,35.70
2019-05-07T16:07:58.900Z,36.90
2019-05-07T16:10:28.591Z,37.30
2019-05-07T16:12:58.209Z,38.00
2019-05-07T16:15:27.922Z,37.90
2019-05-07T16:17:59.087Z,38.60
2019-05-07T16:20:28.851Z,38.80
2019-05-07T16:23:12.077Z,39.90
2019-05-07T16:25:32.810Z,38.70
2019-05-07T16:28:04.962Z,38.90
2019-05-07T16:30:33.870Z,39.20
2019-05-07T16:33:03.807Z,38.70
2019-05-07T16:35:33.318Z,39.70
2019-05-07T16:38:02.864Z,40.80
2019-05-07T16:40:32.535Z,41.70
2019-05-07T16:43:02.801Z,41.40
2019-05-07T16:45:32.539Z,41.60
2019-05-07T16:48:03.167Z,42.60
2019-05-07T16:50:33.009Z,42.30
2019-05-07T16:53:02.982Z,42.20
2019-05-07T16:55:36.996Z,43.50
2019-05-07T16:58:12.557Z,43.40
2019-05-07T17:00:46.703Z,44.20
2019-05-07T17:03:18.046Z,44.40
2019-05-07T17:05:47.728Z,45.00
2019-05-07T17:08:19.002Z,45.90
2019-05-07T17:10:48.610Z,46.10
2019-05-07T17:13:18.327Z,45.90
2019-05-07T17:15:55.301Z,45.80
2019-05-07T17:18:28.383Z,45.80
2019-05-07T17:20:58.862Z,45.90
2019-05-07T17:23:42.773Z,46.30
2019-05-07T17:25:59.835Z,46.70
2019-05-07T17:28:31.767Z,46.20
2019-05-07T17:31:02.822Z,46.70
2019-05-07T17:33:32.077Z,46.90
2019-05-07T17:36:02.482Z,46.70
2019-05-07T17:38:32.397Z,46.90
2019-05-07T17:41:10.779Z,46.70
2019-05-07T17:43:33.216Z,47.20
2019-05-07T17:46:02.987Z,47.30
2019-05-07T17:48:33.093Z,47.50
2019-05-07T17:51:06.891Z,47.90
2019-05-07T17:53:36.697Z,47.80
2019-05-07T17:56:06.327Z,48.00
2019-05-07T17:58:36.126Z,48.40
2019-05-07T18:01:06.362Z,48.70
2019-05-07T18:03:42.654Z,48.90
2019-05-07T18:06:12.509Z,51.60
2019-05-07T18:08:42.221Z,55.70
2019-05-07T18:11:20.450Z,57.40
2019-05-07T18:13:43.050Z,59.00
2019-05-07T18:16:14.246Z,61.20
2019-05-07T18:18:43.854Z,63.20
2019-05-07T18:21:13.421Z,64.60
2019-05-07T18:23:43.392Z,65.30
2019-05-07T18:26:26.958Z,65.60
2019-05-07T18:28:44.240Z,66.40
2019-05-07T18:31:15.928Z,66.90
2019-05-07T18:33:49.730Z,67.20
2019-05-07T18:36:19.267Z,68.00
2019-05-07T18:38:48.822Z,68.00
2019-05-07T18:41:18.424Z,68.00
2019-05-07T18:43:47.961Z,68.00
2019-05-07T18:46:17.505Z,68.10
2019-05-07T18:48:47.045Z,68.40
2019-05-07T18:51:16.570Z,68.30
2019-05-07T18:53:46.115Z,68.60
2019-05-07T18:56:15.651Z,68.70
2019-05-07T18:58:45.199Z,68.60
2019-05-07T19:01:15.847Z,68.40
2019-05-07T19:03:47.362Z,68.40
2019-05-07T19:06:17.030Z,68.60
2019-05-07T19:08:47.811Z,68.60
2019-05-07T19:11:17.415Z,69.00
2019-05-07T19:13:46.970Z,69.10
2019-05-07T19:16:16.776Z,69.40
2019-05-07T19:18:46.322Z,69.40
2019-05-07T19:21:15.931Z,69.50
2019-05-07T19:23:45.477Z,69.80
2019-05-07T19:26:15.006Z,69.60
2019-05-07T19:28:44.542Z,69.40
2019-05-07T19:31:14.645Z,70.00
2019-05-07T19:33:44.341Z,69.60
2019-05-07T19:36:14.028Z,69.80
2019-05-07T19:38:43.567Z,70.10
2019-05-07T19:41:13.170Z,70.00
2019-05-07T19:43:42.727Z,69.90
2019-05-07T19:46:12.494Z,70.20
2019-05-07T19:48:44.047Z,70.00
2019-05-07T19:51:13.319Z,69.20
2019-05-07T19:53:42.932Z,69.40
2019-05-07T19:56:16.798Z,69.40
2019-05-07T19:58:46.398Z,69.40
2019-05-07T20:01:17.638Z,69.20
2019-05-07T20:03:47.186Z,69.60
2019-05-07T20:06:16.789Z,69.40
2019-05-07T20:08:46.413Z,68.90
2019-05-07T20:11:22.316Z,68.50
2019-05-07T20:13:52.354Z,68.20
2019-05-07T20:16:23.332Z,68.70
2019-05-07T20:18:53.156Z,69.10
2019-05-07T20:21:23.057Z,69.40
2019-05-07T20:23:53.758Z,69.60
2019-05-07T20:26:24.268Z,69.50
2019-05-07T20:28:53.799Z,69.40
2019-05-07T20:31:24.483Z,69.50
2019-05-07T20:33:54.159Z,69.90
2019-05-07T20:36:23.844Z,69.80
2019-05-07T20:38:53.446Z,70.30
2019-05-07T20:41:24.077Z,70.10
2019-05-07T20:43:53.622Z,69.70
2019-05-07T20:46:23.325Z,69.80
2019-05-07T20:48:53.000Z,69.70
2019-05-07T20:51:23.129Z,69.60
2019-05-07T20:53:57.376Z,69.80
2019-05-07T20:56:28.628Z,68.90
2019-05-07T20:58:58.163Z,68.40
2019-05-07T21:01:27.712Z,68.70
2019-05-07T21:03:57.324Z,69.00
2019-05-07T21:06:26.921Z,68.40
2019-05-07T21:08:56.462Z,68.40
2019-05-07T21:11:26.013Z,69.00
2019-05-07T21:13:55.541Z,68.90
2019-05-07T21:16:25.157Z,69.20
2019-05-07T21:18:54.777Z,69.30
2019-05-07T21:21:24.328Z,69.00
2019-05-07T21:23:53.878Z,69.00
2019-05-07T21:26:23.429Z,68.50
2019-05-07T21:28:53.022Z,68.60
2019-05-07T21:31:22.945Z,68.30
2019-05-07T21:33:52.626Z,68.30
2019-05-07T21:36:22.805Z,68.10
2019-05-07T21:38:52.513Z,67.80
2019-05-07T21:41:22.765Z,68.00
2019-05-07T21:43:52.924Z,68.20
2019-05-07T21:46:22.549Z,68.60
2019-05-07T21:48:53.745Z,68.60
2019-05-07T21:51:23.433Z,68.90
2019-05-07T21:53:57.193Z,69.00
2019-05-07T21:56:34.169Z,69.30
2019-05-07T21:59:05.341Z,69.10
2019-05-07T22:01:36.685Z,69.10
2019-05-07T22:04:06.439Z,68.90
2019-05-07T22:06:36.063Z,69.10
2019-05-07T22:09:07.616Z,69.50
2019-05-07T22:11:37.361Z,69.40
2019-05-07T22:14:06.966Z,69.60
2019-05-07T22:16:36.841Z,69.60
2019-05-07T22:19:07.342Z,69.50
2019-05-07T22:21:36.883Z,69.70
2019-05-07T22:24:06.493Z,70.00
2019-05-07T22:26:36.038Z,70.50
2019-05-07T22:29:05.638Z,70.50
2019-05-07T22:31:53.093Z,70.40
2019-05-07T22:34:26.937Z,70.20
2019-05-07T22:36:58.110Z,70.00
2019-05-07T22:39:45.367Z,69.80
2019-05-07T22:42:22.521Z,69.70
2019-05-07T22:44:52.305Z,69.70
2019-05-07T22:47:22.893Z,69.90
2019-05-07T22:49:53.716Z,69.40
2019-05-07T22:52:23.560Z,69.00
2019-05-07T22:54:53.183Z,69.10
2019-05-07T22:57:33.129Z,68.90
2019-05-07T23:00:04.654Z,69.20
2019-05-07T23:02:36.036Z,69.70
2019-05-07T23:05:07.449Z,69.70
2019-05-07T23:07:36.993Z,69.40
2019-05-07T23:10:06.688Z,69.70
2019-05-07T23:12:36.227Z,69.80
2019-05-07T23:15:07.310Z,69.60
2019-05-07T23:17:36.854Z,68.70
2019-05-07T23:20:06.921Z,69.10
2019-05-07T23:22:36.463Z,69.10
2019-05-07T23:25:06.734Z,68.70
2019-05-07T23:27:36.274Z,69.10
2019-05-07T23:30:06.053Z,69.50
2019-05-07T23:32:35.661Z,69.10
2019-05-07T23:35:05.455Z,69.20
2019-05-07T23:37:35.000Z,69.10
2019-05-07T23:40:23.044Z,69.10
2019-05-07T23:42:54.289Z,69.20
2019-05-07T23:45:23.912Z,69.40
2019-05-07T23:47:53.457Z,69.70
2019-05-07T23:50:23.099Z,70.40
2019-05-07T23:52:52.758Z,71.40
2019-05-07T23:55:22.916Z,72.10
2019-05-07T23:57:52.655Z,72.50
